Time;durP1;ratioP1;P1;durP2;ratioP2;P2;SDS_P1;SDS_P2;PMS_P1;PMS_P2;Temp;Humidity;BMP_temperature;BMP_pressure;BME280_temperature;BME280_humidity;BME280_pressure;Samples;Min_cycle;Max_cycle;Signal;HPM_P1;HPM_P2
2023/12/10 00:00:11;;;;;;;;;;;;;;;;;;2180010;59;6843;-26
2023/12/10 00:02:41;;;;;;;;;;;;;;;;;;2180891;59;6881;-25
2023/12/10 00:05:11;;;;;;;;;;;;;;;;;;2181567;59;6771;-25
2023/12/10 00:07:41;;;;;;;;;;;;;;;;;;2181172;59;7038;-25
2023/12/10 00:10:11;;;;;;;;;;;;;;;;;;2181682;59;6986;-25
2023/12/10 00:12:42;;;;;;;;;;;;;;;;;;2181680;59;7689;-25
2023/12/10 00:15:12;;;;;;;;;;;;;;;;;;2182659;59;6594;-26
2023/12/10 00:17:42;;;;;;;;;;;;;;;;;;2190785;67;7072;-25
2023/12/10 00:20:13;;;;;;;;;;;;;;;;;;2181252;59;7199;-25
2023/12/10 00:22:45;;;;;;;;;;;;;;;;;;2178590;59;6586;-25
2023/12/10 00:25:15;;;;;;;;;;;;;;;;;;2179954;59;7957;-26
2023/12/10 00:27:45;;;;;;;;;;;;;;;;;;2174126;60;6688;-26
2023/12/10 00:30:15;;;;;;;;;;;;;;;;;;2180338;60;6644;-26
2023/12/10 00:32:45;;;;;;;;;;;;;;;;;;2179177;59;6715;-26
2023/12/10 00:35:16;;;;;;;;;;;;;;;;;;2179470;59;6767;-26
2023/12/10 00:37:46;;;;;;;;;;;;;;;;;;2173452;64;6866;-26
2023/12/10 00:40:16;;;;;;;;;;;;;;;;;;2180622;59;7050;-26
2023/12/10 00:42:47;;;;;;;;;;;;;;;;;;2195019;59;6864;-26
2023/12/10 00:45:17;;;;;;;;;;;;;;;;;;2181038;60;7737;-26
2023/12/10 00:47:47;;;;;;;;;;;;;;;;;;2181007;59;6762;-26
2023/12/10 00:50:18;;;;;;;;;;;;;;;;;;2184245;60;6767;-27
2023/12/10 00:52:48;;;;;;;;;;;;;;;;;;2180534;59;6720;-26
2023/12/10 00:55:18;;;;;;;;;;;;;;;;;;2179753;60;6643;-27
2023/12/10 00:57:48;;;;;;;;;;;;;;;;;;2181112;59;6701;-26
2023/12/10 01:00:19;;;;;;;;;;;;;;;;;;2181340;59;7790;-26
2023/12/10 01:02:51;;;;;;;;;;;;;;;;;;2179144;59;6658;-26
2023/12/10 01:05:21;;;;;;;;;;;;;;;;;;2182084;59;7153;-26
2023/12/10 01:07:51;;;;;;;;;;;;;;;;;;2187134;59;8066;-26
2023/12/10 01:10:22;;;;;;;;;;;;;;;;;;2180511;59;6691;-26
2023/12/10 01:12:52;;;;;;;;;;;;;;;;;;2179870;59;6873;-25
2023/12/10 01:15:32;;;;;;;;;;;;;;;;;;2177872;60;6720;-25
2023/12/10 01:18:02;;;;;;;;;;;;;;;;;;2180617;59;6655;-25
2023/12/10 01:20:33;;;;;;;;;;;;;;;;;;2179240;59;6752;-25
2023/12/10 01:23:04;;;;;;;;;;;;;;;;;;2179531;59;6608;-25
2023/12/10 01:25:34;;;;;;;;;;;;;;;;;;2180246;59;6619;-25
2023/12/10 01:28:05;;;;;;;;;;;;;;;;;;2173435;59;6712;-26
2023/12/10 01:30:35;;;;;;;;;;;;;;;;;;2180413;59;7196;-25
2023/12/10 01:33:06;;;;;;;;;;;;;;;;;;2188890;54;6917;-22
2023/12/10 01:35:36;;;;;;;;;;;;;;;;;;2176891;59;6609;-22
2023/12/10 01:38:06;;;;;;;;;;;;;;;;;;2178804;59;7483;-22
2023/12/10 01:40:36;;;;;;;;;;;;;;;;;;2178586;59;7711;-22
2023/12/10 01:43:07;;;;;;;;;;;;;;;;;;2177014;67;7865;-22
2023/12/10 01:45:39;;;;;;;;;;;;;;;;;;2178096;59;7335;-21
2023/12/10 01:48:09;;;;;;;;;;;;;;;;;;2180049;59;7002;-21
2023/12/10 01:50:39;;;;;;;;;;;;;;;;;;2179962;59;6851;-22
2023/12/10 01:53:10;;;;;;;;;;;;;;;;;;2177635;65;6746;-21
2023/12/10 01:55:41;;;;;;;;;;;;;;;;;;2177962;59;6942;-22
2023/12/10 01:58:11;;;;;;;;;;;;;;;;;;2177165;59;6690;-21
2023/12/10 02:00:42;;;;;;;;;;;;;;;;;;2176948;67;7611;-21
2023/12/10 02:03:12;;;;;;;;;;;;;;;;;;2175662;60;6859;-21
2023/12/10 02:05:42;;;;;;;;;;;;;;;;;;2177986;59;7049;-21
2023/12/10 02:08:13;;;;;;;;;;;;;;;;;;2177816;59;6683;-21
2023/12/10 02:10:43;;;;;;;;;;;;;;;;;;2178509;60;6916;-21
2023/12/10 02:13:13;;;;;;;;;;;;;;;;;;2176519;66;6724;-21
2023/12/10 02:15:44;;;;;;;;;;;;;;;;;;2175193;60;6824;-21
2023/12/10 02:18:17;;;;;;;;;;;;;;;;;;2178954;59;8239;-21
2023/12/10 02:20:48;;;;;;;;;;;;;;;;;;2178266;59;8054;-21
2023/12/10 02:23:19;;;;;;;;;;;;;;;;;;2177174;67;6616;-21
2023/12/10 02:25:50;;;;;;;;;;;;;;;;;;2176775;67;6672;-21
2023/12/10 02:28:22;;;;;;;;;;;;;;;;;;2173938;60;6859;-21
2023/12/10 02:30:52;;;;;;;;;;;;;;;;;;2180422;60;6663;-21
2023/12/10 02:33:22;;;;;;;;;;;;;;;;;;2179494;60;6805;-21
2023/12/10 02:35:53;;;;;;;;;;;;;;;;;;2175887;60;6720;-21
2023/12/10 02:38:23;;;;;;;;;;;;;;;;;;2177239;64;6690;-21
2023/12/10 02:40:54;;;;;;;;;;;;;;;;;;2180560;60;7224;-21
2023/12/10 02:43:24;;;;;;;;;;;;;;;;;;2182585;60;6722;-21
2023/12/10 02:45:54;;;;;;;;;;;;;;;;;;2178001;60;6892;-21
2023/12/10 02:48:25;;;;;;;;;;;;;;;;;;2177947;59;6765;-21
2023/12/10 02:50:55;;;;;;;;;;;;;;;;;;2177511;60;6745;-21
2023/12/10 02:53:25;;;;;;;;;;;;;;;;;;2179213;60;7748;-21
2023/12/10 02:55:57;;;;;;;;;;;;;;;;;;2181062;60;7008;-21
2023/12/10 02:58:27;;;;;;;;;;;;;;;;;;2180480;59;9458;-21
2023/12/10 03:00:58;;;;;;;;;;;;;;;;;;2179237;67;6745;-21
2023/12/10 03:03:28;;;;;;;;;;;;;;;;;;2180690;59;7152;-21
2023/12/10 03:05:58;;;;;;;;;;;;;;;;;;2179158;60;7068;-21
2023/12/10 03:08:28;;;;;;;;;;;;;;;;;;2178046;59;6728;-21
2023/12/10 03:10:59;;;;;;;;;;;;;;;;;;2178614;59;6695;-21
2023/12/10 03:13:29;;;;;;;;;;;;;;;;;;2179084;60;7056;-21
2023/12/10 03:15:59;;;;;;;;;;;;;;;;;;2178789;59;6695;-21
2023/12/10 03:18:29;;;;;;;;;;;;;;;;;;2178849;60;6595;-21
2023/12/10 03:21:00;;;;;;;;;;;;;;;;;;2177884;67;6884;-21
2023/12/10 03:23:30;;;;;;;;;;;;;;;;;;2177926;67;6741;-21
2023/12/10 03:26:00;;;;;;;;;;;;;;;;;;2178109;59;6671;-21
2023/12/10 03:28:30;;;;;;;;;;;;;;;;;;2175504;59;6736;-21
2023/12/10 03:31:01;;;;;;;;;;;;;;;;;;2179394;59;7759;-21
2023/12/10 03:33:33;;;;;;;;;;;;;;;;;;2178382;60;6750;-22
2023/12/10 03:36:03;;;;;;;;;;;;;;;;;;2178806;59;6858;-22
2023/12/10 03:38:34;;;;;;;;;;;;;;;;;;2178313;60;6737;-22
2023/12/10 03:41:04;;;;;;;;;;;;;;;;;;2178066;67;6803;-22
2023/12/10 03:43:34;;;;;;;;;;;;;;;;;;2179038;59;7532;-22
2023/12/10 03:46:05;;;;;;;;;;;;;;;;;;2174792;60;7385;-22
2023/12/10 03:48:35;;;;;;;;;;;;;;;;;;2178395;59;6675;-22
2023/12/10 03:51:05;;;;;;;;;;;;;;;;;;2180793;60;7058;-22
2023/12/10 03:53:36;;;;;;;;;;;;;;;;;;2179183;60;6707;-22
2023/12/10 03:56:06;;;;;;;;;;;;;;;;;;2177444;67;6795;-22
2023/12/10 03:58:36;;;;;;;;;;;;;;;;;;2178289;59;8178;-22
2023/12/10 04:01:07;;;;;;;;;;;;;;;;;;2181587;67;7623;-22
2023/12/10 04:03:37;;;;;;;;;;;;;;;;;;2177120;59;6935;-22
2023/12/10 04:06:07;;;;;;;;;;;;;;;;;;2180352;60;6683;-22
2023/12/10 04:08:38;;;;;;;;;;;;;;;;;;2178450;59;7070;-22
2023/12/10 04:11:08;;;;;;;;;;;;;;;;;;2175323;59;7249;-22
2023/12/10 04:13:39;;;;;;;;;;;;;;;;;;2176016;59;6790;-22
2023/12/10 04:16:09;;;;;;;;;;;;;;;;;;2175698;60;7801;-22
2023/12/10 04:18:39;;;;;;;;;;;;;;;;;;2180188;59;6716;-22
2023/12/10 04:21:09;;;;;;;;;;;;;;;;;;2176983;59;6753;-22
2023/12/10 04:23:40;;;;;;;;;;;;;;;;;;2177043;59;6718;-22
2023/12/10 04:26:10;;;;;;;;;;;;;;;;;;2174242;60;7110;-22
2023/12/10 04:28:40;;;;;;;;;;;;;;;;;;2173446;67;6626;-22
2023/12/10 04:31:11;;;;;;;;;;;;;;;;;;2177043;59;6678;-22
2023/12/10 04:33:43;;;;;;;;;;;;;;;;;;2179716;59;6716;-22
2023/12/10 04:36:13;;;;;;;;;;;;;;;;;;2177368;60;7840;-22
2023/12/10 04:38:44;;;;;;;;;;;;;;;;;;2177209;60;6604;-22
2023/12/10 04:41:14;;;;;;;;;;;;;;;;;;2176733;59;7182;-22
2023/12/10 04:43:45;;;;;;;;;;;;;;;;;;2179104;60;6854;-22
2023/12/10 04:46:16;;;;;;;;;;;;;;;;;;2176391;60;7558;-23
2023/12/10 04:48:47;;;;;;;;;;;;;;;;;;2179401;59;6780;-22
2023/12/10 04:51:17;;;;;;;;;;;;;;;;;;2177041;60;6862;-22
2023/12/10 04:53:47;;;;;;;;;;;;;;;;;;2180726;60;7751;-22
2023/12/10 04:56:17;;;;;;;;;;;;;;;;;;2179014;59;7593;-22
2023/12/10 04:58:48;;;;;;;;;;;;;;;;;;2178317;60;6601;-22
2023/12/10 05:01:18;;;;;;;;;;;;;;;;;;2180848;59;7229;-22
2023/12/10 05:03:48;;;;;;;;;;;;;;;;;;2180935;59;6759;-22
2023/12/10 05:06:18;;;;;;;;;;;;;;;;;;2178861;60;6706;-22
2023/12/10 05:08:49;;;;;;;;;;;;;;;;;;2177805;67;7177;-22
2023/12/10 05:11:19;;;;;;;;;;;;;;;;;;2178937;60;6771;-22
2023/12/10 05:13:50;;;;;;;;;;;;;;;;;;2183205;59;6816;-22
2023/12/10 05:16:20;;;;;;;;;;;;;;;;;;2178612;59;7672;-22
2023/12/10 05:18:50;;;;;;;;;;;;;;;;;;2179577;59;7053;-22
2023/12/10 05:21:20;;;;;;;;;;;;;;;;;;2177016;60;6519;-22
2023/12/10 05:23:51;;;;;;;;;;;;;;;;;;2177946;67;6945;-22
2023/12/10 05:26:21;;;;;;;;;;;;;;;;;;2171528;67;6649;-22
2023/12/10 05:28:51;;;;;;;;;;;;;;;;;;2178840;60;6903;-22
2023/12/10 05:31:21;;;;;;;;;;;;;;;;;;2189735;59;6739;-22
2023/12/10 05:33:52;;;;;;;;;;;;;;;;;;2177717;59;6707;-22
2023/12/10 05:36:22;;;;;;;;;;;;;;;;;;2179178;59;7713;-22
2023/12/10 05:38:52;;;;;;;;;;;;;;;;;;2179682;59;6876;-22
2023/12/10 05:41:22;;;;;;;;;;;;;;;;;;2175539;60;6698;-22
2023/12/10 05:43:53;;;;;;;;;;;;;;;;;;2178546;67;6728;-22
2023/12/10 05:46:23;;;;;;;;;;;;;;;;;;2177435;65;6712;-22
2023/12/10 05:48:53;;;;;;;;;;;;;;;;;;2178014;59;6724;-22
2023/12/10 05:51:23;;;;;;;;;;;;;;;;;;2177817;67;7741;-22
2023/12/10 05:53:54;;;;;;;;;;;;;;;;;;2178454;59;6756;-22
2023/12/10 05:56:24;;;;;;;;;;;;;;;;;;2177107;60;6991;-22
2023/12/10 05:58:54;;;;;;;;;;;;;;;;;;2178209;60;7026;-22
2023/12/10 06:01:25;;;;;;;;;;;;;;;;;;2178794;59;7805;-22
2023/12/10 06:03:55;;;;;;;;;;;;;;;;;;2178457;59;6651;-22
2023/12/10 06:06:25;;;;;;;;;;;;;;;;;;2178388;59;6728;-22
2023/12/10 06:08:55;;;;;;;;;;;;;;;;;;2179051;59;7255;-22
2023/12/10 06:11:26;;;;;;;;;;;;;;;;;;2178406;59;6769;-22
2023/12/10 06:13:56;;;;;;;;;;;;;;;;;;2180690;67;6986;-21
2023/12/10 06:16:26;;;;;;;;;;;;;;;;;;2179596;60;6768;-22
2023/12/10 06:18:57;;;;;;;;;;;;;;;;;;2176947;67;6716;-22
2023/12/10 06:21:27;;;;;;;;;;;;;;;;;;2178834;59;6625;-22
2023/12/10 06:23:57;;;;;;;;;;;;;;;;;;2178621;60;7787;-22
2023/12/10 06:26:27;;;;;;;;;;;;;;;;;;2187483;59;6896;-22
2023/12/10 06:28:58;;;;;;;;;;;;;;;;;;2179971;60;6639;-22
2023/12/10 06:31:28;;;;;;;;;;;;;;;;;;2183514;60;6895;-22
2023/12/10 06:33:58;;;;;;;;;;;;;;;;;;2178826;60;6739;-22
2023/12/10 06:36:29;;;;;;;;;;;;;;;;;;2181935;59;6753;-22
2023/12/10 06:38:59;;;;;;;;;;;;;;;;;;2184494;59;6649;-22
2023/12/10 06:41:29;;;;;;;;;;;;;;;;;;2178808;60;7617;-22
2023/12/10 06:43:59;;;;;;;;;;;;;;;;;;2180506;60;6571;-22
2023/12/10 06:46:30;;;;;;;;;;;;;;;;;;2177868;59;6594;-22
2023/12/10 06:49:00;;;;;;;;;;;;;;;;;;2179625;60;6797;-22
2023/12/10 06:51:30;;;;;;;;;;;;;;;;;;2178961;59;6658;-21
2023/12/10 06:54:00;;;;;;;;;;;;;;;;;;2182860;59;6689;-21
2023/12/10 06:56:33;;;;;;;;;;;;;;;;;;2178423;60;7601;-22
2023/12/10 06:59:03;;;;;;;;;;;;;;;;;;2178914;60;6747;-22
2023/12/10 07:01:34;;;;;;;;;;;;;;;;;;2180646;59;6932;-21
2023/12/10 07:04:07;;;;;;;;;;;;;;;;;;2181433;60;6628;-21
2023/12/10 07:06:37;;;;;;;;;;;;;;;;;;2180682;59;7289;-21
2023/12/10 07:09:08;;;;;;;;;;;;;;;;;;2178187;60;6646;-22
2023/12/10 07:11:38;;;;;;;;;;;;;;;;;;2180371;59;6728;-21
2023/12/10 07:14:08;;;;;;;;;;;;;;;;;;2177340;60;7807;-22
2023/12/10 07:16:38;;;;;;;;;;;;;;;;;;2181761;59;6684;-21
2023/12/10 07:19:08;;;;;;;;;;;;;;;;;;2177770;59;6631;-22
2023/12/10 07:21:40;;;;;;;;;;;;;;;;;;2182967;67;6706;-21
2023/12/10 07:24:10;;;;;;;;;;;;;;;;;;2185262;59;6667;-21
2023/12/10 07:26:40;;;;;;;;;;;;;;;;;;2176789;67;7189;-21
2023/12/10 07:29:10;;;;;;;;;;;;;;;;;;2178056;64;6864;-21
2023/12/10 07:31:40;;;;;;;;;;;;;;;;;;2178749;60;6623;-21
2023/12/10 07:34:11;;;;;;;;;;;;;;;;;;2177964;60;6827;-21
2023/12/10 07:36:41;;;;;;;;;;;;;;;;;;2180326;60;6732;-21
2023/12/10 07:39:13;;;;;;;;;;;;;;;;;;2179266;59;7172;-21
2023/12/10 07:41:43;;;;;;;;;;;;;;;;;;2177407;67;6876;-21
2023/12/10 07:44:13;;;;;;;;;;;;;;;;;;2179107;60;6934;-21
2023/12/10 07:46:43;;;;;;;;;;;;;;;;;;2200905;54;7566;-25
2023/12/10 07:49:13;;;;;;;;;;;;;;;;;;2205590;59;7543;-25
2023/12/10 07:51:44;;;;;;;;;;;;;;;;;;2202517;59;6661;-24
2023/12/10 07:54:14;;;;;;;;;;;;;;;;;;2203777;59;6776;-25
2023/12/10 07:56:45;;;;;;;;;;;;;;;;;;2207411;58;6671;-25
2023/12/10 07:59:16;;;;;;;;;;;;;;;;;;2202133;59;7470;-25
2023/12/10 08:01:46;;;;;;;;;;;;;;;;;;2204803;59;7648;-25
2023/12/10 08:04:16;;;;;;;;;;;;;;;;;;2206814;59;7630;-25
2023/12/10 08:06:46;;;;;;;;;;;;;;;;;;2208924;58;6639;-25
2023/12/10 08:09:17;;;;;;;;;;;;;;;;;;2208576;66;6608;-25
2023/12/10 08:11:47;;;;;;;;;;;;;;;;;;2210771;59;6627;-25
2023/12/10 08:14:18;;;;;;;;;;;;;;;;;;2213226;59;6581;-25
2023/12/10 08:16:48;;;;;;;;;;;;;;;;;;2208398;59;8057;-25
2023/12/10 08:19:18;;;;;;;;;;;;;;;;;;2206822;59;6578;-25
2023/12/10 08:21:48;;;;;;;;;;;;;;;;;;2207654;58;7620;-25
2023/12/10 08:24:18;;;;;;;;;;;;;;;;;;2206506;66;6745;-25
2023/12/10 08:26:49;;;;;;;;;;;;;;;;;;2202061;66;6968;-25
2023/12/10 08:29:19;;;;;;;;;;;;;;;;;;2206242;59;6537;-25
2023/12/10 08:31:50;;;;;;;;;;;;;;;;;;2207297;59;6889;-25
2023/12/10 08:34:20;;;;;;;;;;;;;;;;;;2206789;59;7938;-25
2023/12/10 08:36:50;;;;;;;;;;;;;;;;;;2207194;59;6739;-25
2023/12/10 08:39:20;;;;;;;;;;;;;;;;;;2206656;58;6617;-25
2023/12/10 08:41:52;;;;;;;;;;;;;;;;;;2204132;58;7169;-25
2023/12/10 08:44:22;;;;;;;;;;;;;;;;;;2206298;59;6974;-25
2023/12/10 08:46:53;;;;;;;;;;;;;;;;;;2207551;58;6605;-24
2023/12/10 08:49:23;;;;;;;;;;;;;;;;;;2207336;59;7709;-25
2023/12/10 08:51:53;;;;;;;;;;;;;;;;;;2207743;59;7650;-25
2023/12/10 08:54:23;;;;;;;;;;;;;;;;;;2206613;59;6769;-25
2023/12/10 08:56:54;;;;;;;;;;;;;;;;;;2207064;59;7105;-25
2023/12/10 08:59:24;;;;;;;;;;;;;;;;;;2206192;59;6804;-25
2023/12/10 09:01:54;;;;;;;;;;;;;;;;;;2208516;59;6780;-25
2023/12/10 09:04:24;;;;;;;;;;;;;;;;;;2207231;58;7651;-25
2023/12/10 09:06:55;;;;;;;;;;;;;;;;;;2208361;59;6677;-25
2023/12/10 09:09:25;;;;;;;;;;;;;;;;;;2210104;59;6898;-25
2023/12/10 09:11:55;;;;;;;;;;;;;;;;;;2207062;59;6785;-25
2023/12/10 09:14:25;;;;;;;;;;;;;;;;;;2206165;58;6764;-25
2023/12/10 09:16:56;;;;;;;;;;;;;;;;;;2205762;59;6728;-25
2023/12/10 09:19:29;;;;;;;;;;;;;;;;;;2205414;59;7326;-25
2023/12/10 09:21:59;;;;;;;;;;;;;;;;;;2206237;59;7673;-25
2023/12/10 09:24:29;;;;;;;;;;;;;;;;;;2203476;59;7607;-25
2023/12/10 09:27:00;;;;;;;;;;;;;;;;;;2197035;59;6745;-25
2023/12/10 09:29:35;;;;;;;;;;;;;;;;;;2204622;59;6605;-25
2023/12/10 09:32:06;;;;;;;;;;;;;;;;;;2208173;58;6629;-25
2023/12/10 09:34:37;;;;;;;;;;;;;;;;;;2202167;58;7026;-24
2023/12/10 09:37:10;;;;;;;;;;;;;;;;;;2205411;59;7637;-25
2023/12/10 09:39:41;;;;;;;;;;;;;;;;;;2203406;59;8138;-24
2023/12/10 09:42:12;;;;;;;;;;;;;;;;;;2203303;59;7854;-25
2023/12/10 09:44:42;;;;;;;;;;;;;;;;;;2201068;59;6678;-25
2023/12/10 09:47:13;;;;;;;;;;;;;;;;;;2205495;58;6726;-25
2023/12/10 09:49:43;;;;;;;;;;;;;;;;;;2205691;59;6813;-25
2023/12/10 09:52:13;;;;;;;;;;;;;;;;;;2205221;59;6688;-25
2023/12/10 09:54:44;;;;;;;;;;;;;;;;;;2204955;59;7557;-25
2023/12/10 09:57:15;;;;;;;;;;;;;;;;;;2204725;59;7557;-25
2023/12/10 09:59:45;;;;;;;;;;;;;;;;;;2205310;58;7617;-25
2023/12/10 10:02:16;;;;;;;;;;;;;;;;;;2203920;59;8102;-26
2023/12/10 10:04:47;;;;;;;;;;;;;;;;;;2204890;59;6774;-25
2023/12/10 10:07:17;;;;;;;;;;;;;;;;;;2205405;58;6636;-25
2023/12/10 10:09:47;;;;;;;;;;;;;;;;;;2201901;59;6646;-25
2023/12/10 10:12:17;;;;;;;;;;;;;;;;;;2204190;59;6683;-25
2023/12/10 10:14:57;;;;;;;;;;;;;;;;;;2205633;59;7769;-25
2023/12/10 10:17:28;;;;;;;;;;;;;;;;;;2205070;59;6589;-25
2023/12/10 10:19:58;;;;;;;;;;;;;;;;;;2205879;66;6595;-25
2023/12/10 10:22:29;;;;;;;;;;;;;;;;;;2205406;59;6940;-25
2023/12/10 10:25:00;;;;;;;;;;;;;;;;;;2190435;59;6974;-25
2023/12/10 10:27:33;;;;;;;;;;;;;;;;;;2188306;59;7640;-25
2023/12/10 10:30:04;;;;;;;;;;;;;;;;;;2205888;66;6736;-25
2023/12/10 10:32:34;;;;;;;;;;;;;;;;;;2204666;59;6825;-25
2023/12/10 10:35:04;;;;;;;;;;;;;;;;;;2204633;58;6859;-25
2023/12/10 10:37:35;;;;;;;;;;;;;;;;;;2205706;59;6841;-25
2023/12/10 10:40:06;;;;;;;;;;;;;;;;;;2204301;59;7172;-25
2023/12/10 10:42:36;;;;;;;;;;;;;;;;;;2205366;59;7813;-25
2023/12/10 10:45:07;;;;;;;;;;;;;;;;;;2206658;59;6787;-25
2023/12/10 10:47:37;;;;;;;;;;;;;;;;;;2204954;59;6636;-25
2023/12/10 10:50:08;;;;;;;;;;;;;;;;;;2205565;59;6686;-25
2023/12/10 10:52:39;;;;;;;;;;;;;;;;;;2204530;59;6669;-25
2023/12/10 10:55:10;;;;;;;;;;;;;;;;;;2205870;59;6625;-25
2023/12/10 10:57:41;;;;;;;;;;;;;;;;;;2205316;59;6623;-25
2023/12/10 11:00:17;;;;;;;;;;;;;;;;;;2205815;59;7641;-25
2023/12/10 11:02:48;;;;;;;;;;;;;;;;;;2205398;59;8404;-25
2023/12/10 11:05:34;;;;;;;;;;;;;;;;;;2205410;59;6942;-25
2023/12/10 11:08:05;;;;;;;;;;;;;;;;;;2206759;58;6587;-25
2023/12/10 11:10:39;;;;;;;;;;;;;;;;;;2205556;58;7317;-25
2023/12/10 11:13:09;;;;;;;;;;;;;;;;;;2206588;58;6725;-25
2023/12/10 11:15:39;;;;;;;;;;;;;;;;;;2205916;59;7716;-25
2023/12/10 11:18:10;;;;;;;;;;;;;;;;;;2206143;59;7703;-25
2023/12/10 11:20:41;;;;;;;;;;;;;;;;;;2198912;66;6727;-25
2023/12/10 11:23:12;;;;;;;;;;;;;;;;;;2205615;59;6751;-25
2023/12/10 11:25:43;;;;;;;;;;;;;;;;;;2205836;59;6971;-25
2023/12/10 11:28:14;;;;;;;;;;;;;;;;;;2198636;59;7048;-25
2023/12/10 11:30:45;;;;;;;;;;;;;;;;;;2193157;59;8807;-25
2023/12/10 11:33:16;;;;;;;;;;;;;;;;;;2204106;59;7756;-25
2023/12/10 11:35:46;;;;;;;;;;;;;;;;;;2205899;59;8102;-25
2023/12/10 11:38:16;;;;;;;;;;;;;;;;;;2205881;59;6678;-25
2023/12/10 11:40:47;;;;;;;;;;;;;;;;;;2202292;66;6790;-25
2023/12/10 11:43:18;;;;;;;;;;;;;;;;;;2205877;59;7006;-25
2023/12/10 11:45:50;;;;;;;;;;;;;;;;;;2206551;59;6783;-25
2023/12/10 11:48:21;;;;;;;;;;;;;;;;;;2205315;59;7697;-25
2023/12/10 11:50:51;;;;;;;;;;;;;;;;;;2206383;59;7829;-25
2023/12/10 11:53:21;;;;;;;;;;;;;;;;;;2206692;59;6577;-25
2023/12/10 11:55:52;;;;;;;;;;;;;;;;;;2206403;59;6830;-25
2023/12/10 11:58:26;;;;;;;;;;;;;;;;;;2202814;59;8053;-25
2023/12/10 12:01:00;;;;;;;;;;;;;;;;;;2206183;59;7247;-25
2023/12/10 12:03:32;;;;;;;;;;;;;;;;;;2204955;59;6718;-25
2023/12/10 12:06:04;;;;;;;;;;;;;;;;;;2205085;59;7910;-25
2023/12/10 12:08:34;;;;;;;;;;;;;;;;;;2205837;59;6770;-25
2023/12/10 12:11:04;;;;;;;;;;;;;;;;;;2206392;59;6704;-25
2023/12/10 12:13:35;;;;;;;;;;;;;;;;;;2205271;59;6775;-25
2023/12/10 12:16:05;;;;;;;;;;;;;;;;;;2206068;59;6843;-25
2023/12/10 12:18:36;;;;;;;;;;;;;;;;;;2204209;58;6796;-25
2023/12/10 12:21:06;;;;;;;;;;;;;;;;;;2205220;59;6672;-25
2023/12/10 12:23:36;;;;;;;;;;;;;;;;;;2203488;59;7822;-25
2023/12/10 12:26:06;;;;;;;;;;;;;;;;;;2202464;59;7854;-25
2023/12/10 12:28:37;;;;;;;;;;;;;;;;;;2201482;59;6659;-25
2023/12/10 12:31:07;;;;;;;;;;;;;;;;;;2206603;66;7761;-25
2023/12/10 12:33:37;;;;;;;;;;;;;;;;;;2204292;59;6842;-25
2023/12/10 12:36:08;;;;;;;;;;;;;;;;;;2204190;58;7308;-25
2023/12/10 12:38:38;;;;;;;;;;;;;;;;;;2202811;59;6705;-25
2023/12/10 12:41:09;;;;;;;;;;;;;;;;;;2206572;59;7663;-25
2023/12/10 12:43:39;;;;;;;;;;;;;;;;;;2205458;59;6641;-25
2023/12/10 12:46:09;;;;;;;;;;;;;;;;;;2201755;59;7088;-25
2023/12/10 12:48:39;;;;;;;;;;;;;;;;;;2203023;59;6589;-25
2023/12/10 12:51:10;;;;;;;;;;;;;;;;;;2204489;58;6669;-25
2023/12/10 12:53:40;;;;;;;;;;;;;;;;;;2202647;59;6727;-25
2023/12/10 12:56:10;;;;;;;;;;;;;;;;;;2204229;59;7599;-25
2023/12/10 12:58:40;;;;;;;;;;;;;;;;;;2203756;59;7103;-25
2023/12/10 13:01:11;;;;;;;;;;;;;;;;;;2204606;58;6641;-25
2023/12/10 13:03:41;;;;;;;;;;;;;;;;;;2203626;59;6686;-25
2023/12/10 13:06:12;;;;;;;;;;;;;;;;;;2206363;59;7289;-25
2023/12/10 13:08:42;;;;;;;;;;;;;;;;;;2206099;59;6958;-25
2023/12/10 13:11:12;;;;;;;;;;;;;;;;;;2206190;59;6798;-25
2023/12/10 13:13:43;;;;;;;;;;;;;;;;;;2204185;59;8117;-25
2023/12/10 13:16:13;;;;;;;;;;;;;;;;;;2206722;58;7752;-25
2023/12/10 13:18:45;;;;;;;;;;;;;;;;;;2204238;59;7858;-25
2023/12/10 13:21:15;;;;;;;;;;;;;;;;;;2204499;59;6703;-25
2023/12/10 13:23:46;;;;;;;;;;;;;;;;;;2205822;59;6716;-25
2023/12/10 13:26:16;;;;;;;;;;;;;;;;;;2203474;59;6658;-25
2023/12/10 13:28:46;;;;;;;;;;;;;;;;;;2201954;59;6699;-25
2023/12/10 13:31:17;;;;;;;;;;;;;;;;;;2206695;58;6671;-25
2023/12/10 13:33:47;;;;;;;;;;;;;;;;;;2206234;59;7885;-25
2023/12/10 13:36:17;;;;;;;;;;;;;;;;;;2204606;59;7544;-25
2023/12/10 13:38:47;;;;;;;;;;;;;;;;;;2201915;59;6874;-25
2023/12/10 13:41:18;;;;;;;;;;;;;;;;;;2202956;59;7208;-25
2023/12/10 13:43:48;;;;;;;;;;;;;;;;;;2199984;59;6911;-25
2023/12/10 13:46:18;;;;;;;;;;;;;;;;;;2202772;59;6743;-25
2023/12/10 13:48:48;;;;;;;;;;;;;;;;;;2207186;59;7313;-25
2023/12/10 13:51:19;;;;;;;;;;;;;;;;;;2210761;66;1990;-25
2023/12/10 13:53:50;;;;;;;;;;;;;;;;;;2210399;66;2022;-25
2023/12/10 13:56:20;;;;;;;;;;;;;;;;;;2208465;66;3753;-25
2023/12/10 13:58:50;;;;;;;;;;;;;;;;;;2207339;53;3683;-78
2023/12/10 14:01:28;;;;;;;;;;;;;;;;;;2204792;59;2591;-78
2023/12/10 14:03:59;;;;;;;;;;;;;;;;;;2205333;59;2597;-79
2023/12/10 14:06:29;;;;;;;;;;;;;;;;;;2204206;59;2345;-78
2023/12/10 14:09:06;;;;;;;;;;;;;;;;;;2205228;59;2787;-78
2023/12/10 14:11:40;;;;;;;;;;;;;;;;;;2204118;59;1949;-78
2023/12/10 14:14:13;;;;;;;;;;;;;;;;;;2205229;59;2089;-78
2023/12/10 14:16:45;;;;;;;;;;;;;;;;;;2203991;59;2969;-77
2023/12/10 14:19:24;;;;;;;;;;;;;;;;;;2203883;59;2749;-78
2023/12/10 14:21:57;;;;;;;;;;;;;;;;;;2204655;59;2194;-78
2023/12/10 14:24:28;;;;;;;;;;;;;;;;;;2203345;59;2090;-78
2023/12/10 14:26:58;;;;;;;;;;;;;;;;;;2201181;59;2467;-78
2023/12/10 14:29:31;;;;;;;;;;;;;;;;;;2202767;59;2826;-78
2023/12/10 14:32:04;;;;;;;;;;;;;;;;;;2202531;59;2707;-79
2023/12/10 14:34:46;;;;;;;;;;;;;;;;;;;;;
2023/12/10 14:37:18;;;;;;;;;;;;;;;;;;2201404;59;2887;-78
2023/12/10 14:39:50;;;;;;;;;;;;;;;;;;2203085;59;2929;-78
2023/12/10 14:42:23;;;;;;;;;;;;;;;;;;2205899;59;2316;-78
2023/12/10 14:44:54;;;;;;;;;;;;;;;;;;2204821;59;2459;-78
2023/12/10 14:47:24;;;;;;;;;;;;;;;;;;2202771;59;1644;-78
2023/12/10 14:49:54;;;;;;;;;;;;;;;;;;2204261;59;2270;-78
2023/12/10 14:52:25;;;;;;;;;;;;;;;;;;2205274;59;3148;-78
2023/12/10 14:54:55;;;;;;;;;;;;;;;;;;2201621;59;2273;-78
2023/12/10 14:57:30;;;;;;;;;;;;;;;;;;2199665;59;2615;-78
2023/12/10 15:00:08;;;;;;;;;;;;;;;;;;2204314;59;2467;-79
2023/12/10 15:02:57;;;;;;;;;;;;;;;;;;;;;
2023/12/10 15:05:30;;;;;;;;;;;;;;;;;;2205843;59;2244;-78
2023/12/10 15:08:00;;;;;;;;;;;;;;;;;;2204599;59;2184;-78
2023/12/10 15:10:31;;;;;;;;;;;;;;;;;;2204382;59;2527;-80
2023/12/10 15:13:04;;;;;;;;;;;;;;;;;;2205333;59;2348;-78
2023/12/10 15:15:35;;;;;;;;;;;;;;;;;;2204041;59;2644;-78
2023/12/10 15:18:05;;;;;;;;;;;;;;;;;;2204009;59;2554;-79
2023/12/10 15:20:36;;;;;;;;;;;;;;;;;;2203299;59;2221;-79
2023/12/10 15:23:06;;;;;;;;;;;;;;;;;;2205102;59;2605;-77
2023/12/10 15:25:39;;;;;;;;;;;;;;;;;;2203094;59;2577;-79
2023/12/10 15:28:16;;;;;;;;;;;;;;;;;;2204589;59;1968;-78
2023/12/10 15:30:46;;;;;;;;;;;;;;;;;;2202097;59;2621;-79
2023/12/10 15:33:20;;;;;;;;;;;;;;;;;;2203744;59;2336;-78
2023/12/10 15:35:56;;;;;;;;;;;;;;;;;;2203236;59;2706;-78
2023/12/10 15:38:34;;;;;;;;;;;;;;;;;;2204031;59;2975;-78
2023/12/10 15:41:05;;;;;;;;;;;;;;;;;;2205593;59;2798;-78
2023/12/10 15:43:35;;;;;;;;;;;;;;;;;;2203786;59;2676;-78
2023/12/10 15:46:08;;;;;;;;;;;;;;;;;;2204913;59;1658;-79
2023/12/10 15:48:47;;;;;;;;;;;;;;;;;;2203550;67;2782;-79
2023/12/10 15:51:18;;;;;;;;;;;;;;;;;;2204838;59;2454;-77
2023/12/10 15:53:48;;;;;;;;;;;;;;;;;;2203894;59;1874;-77
2023/12/10 15:56:18;;;;;;;;;;;;;;;;;;2204790;67;2142;-78
2023/12/10 15:58:51;;;;;;;;;;;;;;;;;;2202978;59;2511;-78
2023/12/10 16:01:23;;;;;;;;;;;;;;;;;;2204568;59;1951;-78
2023/12/10 16:04:02;;;;;;;;;;;;;;;;;;2203630;59;2615;-78
2023/12/10 16:06:33;;;;;;;;;;;;;;;;;;2200610;59;2688;-79
2023/12/10 16:09:04;;;;;;;;;;;;;;;;;;2204931;59;2498;-79
2023/12/10 16:11:40;;;;;;;;;;;;;;;;;;2203643;59;1955;-78
2023/12/10 16:14:11;;;;;;;;;;;;;;;;;;2201255;59;1936;-77
2023/12/10 16:16:44;;;;;;;;;;;;;;;;;;2204367;59;2343;-78
2023/12/10 16:19:14;;;;;;;;;;;;;;;;;;2204211;67;2063;-77
2023/12/10 16:21:44;;;;;;;;;;;;;;;;;;2199841;59;2663;-79
2023/12/10 16:24:18;;;;;;;;;;;;;;;;;;2204062;59;2575;-77
2023/12/10 16:26:48;;;;;;;;;;;;;;;;;;2202945;59;2254;-77
2023/12/10 16:29:18;;;;;;;;;;;;;;;;;;2203837;59;2086;-77
2023/12/10 16:31:49;;;;;;;;;;;;;;;;;;2204268;59;1913;-77
2023/12/10 16:34:19;;;;;;;;;;;;;;;;;;2204526;59;2487;-77
2023/12/10 16:36:50;;;;;;;;;;;;;;;;;;2203512;59;2037;-77
2023/12/10 16:39:20;;;;;;;;;;;;;;;;;;2200043;59;3013;-78
2023/12/10 16:41:50;;;;;;;;;;;;;;;;;;2202966;59;2722;-79
2023/12/10 16:44:27;;;;;;;;;;;;;;;;;;2204994;59;2208;-79
2023/12/10 16:46:58;;;;;;;;;;;;;;;;;;2202378;59;2666;-77
2023/12/10 16:49:28;;;;;;;;;;;;;;;;;;2206084;59;2458;-75
2023/12/10 16:51:59;;;;;;;;;;;;;;;;;;2205446;59;2150;-77
2023/12/10 16:54:31;;;;;;;;;;;;;;;;;;2205997;59;2607;-77
2023/12/10 16:57:02;;;;;;;;;;;;;;;;;;2203338;59;1871;-78
2023/12/10 16:59:32;;;;;;;;;;;;;;;;;;2203468;59;2582;-78
2023/12/10 17:02:09;;;;;;;;;;;;;;;;;;2203703;59;3070;-79
2023/12/10 17:04:39;;;;;;;;;;;;;;;;;;2203190;59;2740;-78
2023/12/10 17:07:13;;;;;;;;;;;;;;;;;;2201225;59;2646;-78
2023/12/10 17:09:44;;;;;;;;;;;;;;;;;;2203273;59;2248;-78
2023/12/10 17:12:14;;;;;;;;;;;;;;;;;;2203955;67;2186;-77
2023/12/10 17:14:55;;;;;;;;;;;;;;;;;;;;;
2023/12/10 17:17:28;;;;;;;;;;;;;;;;;;2204576;59;2490;-79
2023/12/10 17:20:02;;;;;;;;;;;;;;;;;;2202753;59;2307;-78
2023/12/10 17:22:32;;;;;;;;;;;;;;;;;;2203245;59;1837;-77
2023/12/10 17:25:03;;;;;;;;;;;;;;;;;;2202667;59;2490;-77
2023/12/10 17:27:34;;;;;;;;;;;;;;;;;;2202954;59;1839;-77
2023/12/10 17:30:04;;;;;;;;;;;;;;;;;;2202993;59;2339;-77